createdAt,value
2019-05-10T00:04:00.156Z,99067.59
2019-05-10T00:09:06.111Z,99066.72
2019-05-10T00:14:32.159Z,99074.26
2019-05-10T00:19:37.545Z,99072.66
2019-05-10T00:25:02.270Z,99071.08
2019-05-10T00:29:56.731Z,99064.77
2019-05-10T00:35:03.792Z,99065.08
2019-05-10T00:40:09.430Z,99075.44
2019-05-10T00:45:15.162Z,99073.83
2019-05-10T00:50:22.203Z,99082.65
2019-05-10T00:55:28.470Z,99086.63
2019-05-10T01:00:34.144Z,99078.56
2019-05-10T01:05:40.649Z,99081.70
2019-05-10T01:10:45.910Z,99085.30
2019-05-10T01:15:51.911Z,99080.81
2019-05-10T01:20:58.651Z,99077.06
2019-05-10T01:26:04.710Z,99075.17
2019-05-10T01:31:12.610Z,99067.11
2019-05-10T01:36:18.382Z,99066.07
2019-05-10T01:41:24.942Z,99068.39
2019-05-10T01:46:35.786Z,99054.73
2019-05-10T01:51:41.217Z,99069.17
2019-05-10T01:56:47.766Z,99062.04
2019-05-10T02:01:53.958Z,99062.23
2019-05-10T02:06:59.751Z,99060.30
2019-05-10T02:12:05.585Z,99052.09
2019-05-10T02:17:11.605Z,99052.31
2019-05-10T02:22:17.410Z,99057.31
2019-05-10T02:27:23.464Z,99061.92
2019-05-10T02:32:31.885Z,99063.91
2019-05-10T02:37:37.394Z,99063.75
2019-05-10T02:42:43.492Z,99071.87
2019-05-10T02:47:49.452Z,99069.99
2019-05-10T02:53:01.826Z,99065.39
2019-05-10T02:58:08.201Z,99073.59
2019-05-10T03:03:19.124Z,99070.94
2019-05-10T03:08:25.665Z,99060.39
2019-05-10T03:13:31.726Z,99070.42
2019-05-10T03:18:38.342Z,99063.32
2019-05-10T03:23:44.549Z,99067.06
2019-05-10T03:28:50.893Z,99068.97
2019-05-10T03:33:58.060Z,99071.85
2019-05-10T03:39:04.263Z,99073.18
2019-05-10T03:44:11.215Z,99078.86
2019-05-10T03:49:16.863Z,99065.80
2019-05-10T03:54:22.624Z,99077.69
2019-05-10T03:59:34.147Z,99078.45
2019-05-10T04:04:40.119Z,99085.86
2019-05-10T04:09:49.921Z,99082.16
2019-05-10T04:14:56.389Z,99079.09
2019-05-10T04:20:02.315Z,99079.34
2019-05-10T04:25:09.077Z,99083.30
2019-05-10T04:30:16.091Z,99081.62
2019-05-10T04:35:21.819Z,99080.29
2019-05-10T04:40:28.475Z,99077.59
2019-05-10T04:45:35.347Z,99075.18
2019-05-10T04:50:41.407Z,99081.76
2019-05-10T04:55:47.976Z,99080.84
2019-05-10T05:00:53.880Z,99092.36
2019-05-10T05:05:59.607Z,99094.16
2019-05-10T05:11:06.051Z,99090.64
2019-05-10T05:16:12.886Z,99092.56
2019-05-10T05:21:18.766Z,99095.94
2019-05-10T05:26:24.466Z,99093.94
2019-05-10T05:31:36.145Z,99089.66
2019-05-10T05:36:41.789Z,99085.35
2019-05-10T05:41:51.485Z,99086.63
2019-05-10T05:46:55.601Z,99090.27
2019-05-10T05:52:01.202Z,99095.45
2019-05-10T05:57:10.658Z,99098.25
2019-05-10T06:02:16.705Z,99098.25
2019-05-10T06:07:22.345Z,99095.95
2019-05-10T06:12:33.766Z,99099.70
2019-05-10T06:17:40.170Z,99105.67
2019-05-10T06:23:05.117Z,99107.03
2019-05-10T06:27:56.549Z,99108.80
2019-05-10T06:33:12.085Z,99105.12
2019-05-10T06:38:09.957Z,99102.97
2019-05-10T06:43:18.526Z,99111.77
2019-05-10T06:48:27.481Z,99112.60
2019-05-10T06:53:31.665Z,99105.95
2019-05-10T06:58:38.490Z,99116.08
2019-05-10T07:03:45.295Z,99120.85
2019-05-10T07:08:51.613Z,99117.45
2019-05-10T07:13:59.227Z,99121.70
2019-05-10T07:19:09.332Z,99123.98
2019-05-10T07:24:18.300Z,99122.08
2019-05-10T07:29:30.237Z,99122.20
2019-05-10T07:34:36.326Z,99125.27
2019-05-10T07:39:42.190Z,99122.51
2019-05-10T07:44:48.824Z,99127.44
2019-05-10T07:49:56.609Z,99133.96
2019-05-10T07:55:02.934Z,99134.80
2019-05-10T08:00:09.691Z,99136.36
2019-05-10T08:05:18.294Z,99133.12
2019-05-10T08:10:29.942Z,99133.06
2019-05-10T08:15:38.340Z,99141.69
2019-05-10T08:20:53.606Z,99144.34
2019-05-10T08:25:55.654Z,99150.57
2019-05-10T08:31:02.583Z,99149.34
2019-05-10T08:36:08.404Z,99159.99
2019-05-10T08:41:18.144Z,99152.38
2019-05-10T08:46:29.160Z,99161.45
2019-05-10T08:51:34.519Z,99151.25
2019-05-10T08:56:44.050Z,99169.89
2019-05-10T09:01:50.812Z,99165.69
2019-05-10T09:06:59.813Z,99167.37
2019-05-10T09:12:09.079Z,99177.44
2019-05-10T09:17:14.816Z,99175.02
2019-05-10T09:22:25.943Z,99173.56
2019-05-10T09:27:29.085Z,99179.86
2019-05-10T09:32:39.803Z,99185.78
2019-05-10T09:37:47.706Z,99189.64
2019-05-10T09:42:52.922Z,99191.55
2019-05-10T09:48:03.203Z,99193.65
2019-05-10T09:53:12.556Z,99188.99
2019-05-10T09:58:22.307Z,99198.45
2019-05-10T10:03:29.906Z,99193.80
2019-05-10T10:08:34.615Z,99192.50
2019-05-10T10:13:44.003Z,99195.22
2019-05-10T10:18:50.575Z,99193.34
2019-05-10T10:24:00.459Z,99210.55
2019-05-10T10:29:07.358Z,99211.20
2019-05-10T10:34:13.331Z,99199.22
2019-05-10T10:39:22.812Z,99201.31
2019-05-10T10:44:27.378Z,99206.16
2019-05-10T10:49:33.313Z,99202.18
2019-05-10T10:54:39.889Z,99195.02
2019-05-10T10:59:47.465Z,99194.31
2019-05-10T11:04:53.634Z,99186.06
2019-05-10T11:10:08.181Z,99179.36
2019-05-10T11:15:07.858Z,99179.77
2019-05-10T11:20:14.154Z,99176.34
2019-05-10T11:25:21.271Z,99175.34
2019-05-10T11:30:26.863Z,99170.86
2019-05-10T11:35:34.644Z,99178.52
2019-05-10T11:40:41.921Z,99166.41
2019-05-10T11:45:51.452Z,99164.30
2019-05-10T11:50:56.841Z,99160.45
2019-05-10T11:56:07.894Z,99166.81
2019-05-10T12:01:17.689Z,99161.56
2019-05-10T12:06:17.938Z,99160.67
2019-05-10T12:11:33.006Z,99160.56
2019-05-10T12:16:33.416Z,99173.89
2019-05-10T12:21:39.446Z,99166.81
2019-05-10T12:27:13.169Z,99169.70
2019-05-10T12:31:56.972Z,99170.80
2019-05-10T12:37:08.073Z,99179.89
2019-05-10T12:42:11.301Z,99173.48
2019-05-10T12:47:21.392Z,99167.08
2019-05-10T12:52:28.897Z,99175.01
2019-05-10T12:57:35.625Z,99178.80
2019-05-10T13:02:44.717Z,99166.36
2019-05-10T13:07:49.595Z,99190.16
2019-05-10T13:12:55.647Z,99192.37
2019-05-10T13:18:02.145Z,99191.74
2019-05-10T13:23:10.015Z,99192.53
2019-05-10T13:28:15.974Z,99186.73
2019-05-10T13:33:28.842Z,99177.92
2019-05-10T13:38:29.825Z,99183.77
2019-05-10T13:43:35.260Z,99178.39
2019-05-10T13:48:42.009Z,99184.23
2019-05-10T13:53:47.898Z,99183.30
2019-05-10T13:58:55.157Z,99195.44
2019-05-10T14:04:03.572Z,99192.37
2019-05-10T14:09:09.472Z,99194.27
2019-05-10T14:14:20.588Z,99190.23
2019-05-10T14:19:27.048Z,99189.36
2019-05-10T14:24:34.905Z,99185.25
2019-05-10T14:29:40.298Z,99180.70
2019-05-10T14:34:46.439Z,99192.47
2019-05-10T14:39:52.051Z,99197.03
2019-05-10T14:44:58.715Z,99207.38
2019-05-10T14:50:04.099Z,99218.48
2019-05-10T14:55:12.950Z,99221.61
2019-05-10T15:00:18.619Z,99223.72
2019-05-10T15:05:24.702Z,99224.58
2019-05-10T15:10:33.158Z,99231.08
2019-05-10T15:15:39.131Z,99239.97
2019-05-10T15:20:45.582Z,99236.05
2019-05-10T15:25:57.265Z,99240.98
2019-05-10T15:30:58.750Z,99245.76
2019-05-10T15:36:04.626Z,99245.76
2019-05-10T15:41:10.234Z,99246.77
2019-05-10T15:46:16.379Z,99245.87
2019-05-10T15:51:35.191Z,99238.73
2019-05-10T15:56:35.716Z,99235.87
2019-05-10T16:01:40.836Z,99227.48
2019-05-10T16:06:46.530Z,99222.23
2019-05-10T16:12:02.444Z,99219.89
2019-05-10T16:17:10.229Z,99220.91
2019-05-10T16:22:13.862Z,99230.16
2019-05-10T16:27:21.377Z,99244.28
2019-05-10T16:32:29.250Z,99258.48
2019-05-10T16:37:34.962Z,99263.72
2019-05-10T16:42:40.810Z,99263.42
2019-05-10T16:47:46.826Z,99266.95
2019-05-10T16:52:58.968Z,99269.49
2019-05-10T16:58:02.059Z,99267.89
2019-05-10T17:03:13.012Z,99279.08
2019-05-10T17:08:15.990Z,99267.65
2019-05-10T17:13:22.259Z,99265.89
2019-05-10T17:18:29.309Z,99270.70
2019-05-10T17:23:35.204Z,99269.45
2019-05-10T17:28:40.854Z,99273.56
2019-05-10T17:33:49.329Z,99276.84
2019-05-10T17:38:55.802Z,99271.50
2019-05-10T17:44:01.177Z,99268.58
2019-05-10T17:49:08.526Z,99267.91
2019-05-10T17:54:14.344Z,99253.19
2019-05-10T17:59:20.670Z,99265.43
2019-05-10T18:04:26.555Z,99268.13
2019-05-10T18:09:32.834Z,99274.36
2019-05-10T18:14:39.138Z,99271.69
2019-05-10T18:19:45.010Z,99281.22
2019-05-10T18:24:50.436Z,99284.99
2019-05-10T18:29:56.362Z,99290.41
2019-05-10T18:35:13.612Z,99289.87
2019-05-10T18:40:16.180Z,99294.75
2019-05-10T18:45:23.320Z,99302.38
2019-05-10T18:50:31.155Z,99309.52
2019-05-10T18:55:36.668Z,99301.62
2019-05-10T19:00:42.388Z,99307.81
2019-05-10T19:05:51.417Z,99309.93
2019-05-10T19:10:57.906Z,99316.89
2019-05-10T19:16:04.239Z,99318.20
2019-05-10T19:21:10.067Z,99332.84
2019-05-10T19:26:17.540Z,99329.56
2019-05-10T19:31:22.625Z,99334.50
2019-05-10T19:36:28.203Z,99333.69
2019-05-10T19:41:33.938Z,99350.53
2019-05-10T19:46:40.750Z,99359.34
2019-05-10T19:51:50.419Z,99359.70
2019-05-10T19:56:55.449Z,99367.34
2019-05-10T20:02:00.774Z,99364.36
2019-05-10T20:07:06.266Z,99369.64
2019-05-10T20:12:11.712Z,99374.02
2019-05-10T20:17:17.458Z,99380.89
2019-05-10T20:22:22.935Z,99382.31
2019-05-10T20:27:28.386Z,99390.61
2019-05-10T20:32:33.779Z,99394.55
2019-05-10T20:37:39.314Z,99399.70
2019-05-10T20:42:44.618Z,99404.39
2019-05-10T20:47:50.004Z,99418.92
2019-05-10T20:52:55.360Z,99417.05
2019-05-10T20:58:00.818Z,99423.41
2019-05-10T21:03:06.183Z,99424.38
2019-05-10T21:08:16.809Z,99437.35
2019-05-10T21:13:18.730Z,99440.91
2019-05-10T21:18:24.128Z,99449.20
2019-05-10T21:23:30.027Z,99459.08
2019-05-10T21:28:35.370Z,99465.03
2019-05-10T21:33:40.737Z,99467.70
2019-05-10T21:38:46.165Z,99479.19
2019-05-10T21:43:51.470Z,99485.53
2019-05-10T21:48:56.975Z,99489.47
2019-05-10T21:54:02.461Z,99493.03
2019-05-10T21:59:07.850Z,99502.73
2019-05-10T22:04:13.264Z,99508.30
2019-05-10T22:09:18.587Z,99513.98
2019-05-10T22:14:24.142Z,99514.88
2019-05-10T22:19:30.555Z,99526.13
2019-05-10T22:24:35.989Z,99533.53
2019-05-10T22:29:41.385Z,99532.70
2019-05-10T22:34:46.704Z,99532.11
2019-05-10T22:39:51.929Z,99542.55
2019-05-10T22:44:57.310Z,99551.81
2019-05-10T22:50:02.685Z,99546.14
2019-05-10T22:55:08.275Z,99554.45
2019-05-10T23:00:14.266Z,99559.13
2019-05-10T23:05:19.749Z,99566.58
2019-05-10T23:10:25.165Z,99573.74
2019-05-10T23:15:30.440Z,99580.23
2019-05-10T23:20:35.781Z,99579.78
2019-05-10T23:25:41.028Z,99587.78
2019-05-10T23:30:46.434Z,99591.33
2019-05-10T23:35:51.787Z,99598.45
2019-05-10T23:40:57.084Z,99605.58
2019-05-10T23:46:02.539Z,99613.95
2019-05-10T23:51:07.935Z,99622.55
2019-05-10T23:56:13.303Z,99628.97
